sensor_id;sensor_type;location;lat;lon;timestamp;P1;durP1;ratioP1;P2;durP2;ratioP2
1358;SDS011;673;48.098;14.422;2023-02-15T00:02:00;171.82;;;37.80;;
1358;SDS011;673;48.098;14.422;2023-02-15T00:04:27;197.48;;;38.15;;
1358;SDS011;673;48.098;14.422;2023-02-15T00:07:13;142.43;;;27.05;;
1358;SDS011;673;48.098;14.422;2023-02-15T00:09:41;102.18;;;28.67;;
1358;SDS011;673;48.098;14.422;2023-02-15T00:12:08;119.95;;;27.42;;
1358;SDS011;673;48.098;14.422;2023-02-15T00:14:35;222.63;;;35.50;;
1358;SDS011;673;48.098;14.422;2023-02-15T00:17:02;171.05;;;38.03;;
1358;SDS011;673;48.098;14.422;2023-02-15T00:19:29;121.95;;;30.83;;
1358;SDS011;673;48.098;14.422;2023-02-15T00:21:56;150.93;;;30.48;;
1358;SDS011;673;48.098;14.422;2023-02-15T00:24:24;100.18;;;24.40;;
1358;SDS011;673;48.098;14.422;2023-02-15T00:26:51;71.88;;;21.13;;
1358;SDS011;673;48.098;14.422;2023-02-15T00:29:19;54.73;;;18.73;;
1358;SDS011;673;48.098;14.422;2023-02-15T00:31:46;169.73;;;29.83;;
1358;SDS011;673;48.098;14.422;2023-02-15T00:34:14;125.65;;;27.85;;
1358;SDS011;673;48.098;14.422;2023-02-15T00:36:42;109.37;;;27.60;;
1358;SDS011;673;48.098;14.422;2023-02-15T00:39:10;254.30;;;43.20;;
1358;SDS011;673;48.098;14.422;2023-02-15T00:41:39;159.00;;;34.83;;
1358;SDS011;673;48.098;14.422;2023-02-15T00:44:06;74.73;;;17.60;;
1358;SDS011;673;48.098;14.422;2023-02-15T00:46:34;72.90;;;23.37;;
1358;SDS011;673;48.098;14.422;2023-02-15T00:49:01;144.32;;;33.35;;
1358;SDS011;673;48.098;14.422;2023-02-15T00:51:28;62.17;;;18.80;;
1358;SDS011;673;48.098;14.422;2023-02-15T00:53:55;45.22;;;17.88;;
1358;SDS011;673;48.098;14.422;2023-02-15T00:56:22;51.92;;;18.67;;
1358;SDS011;673;48.098;14.422;2023-02-15T00:58:51;93.10;;;25.17;;
1358;SDS011;673;48.098;14.422;2023-02-15T01:01:18;131.77;;;29.90;;
1358;SDS011;673;48.098;14.422;2023-02-15T01:03:46;151.02;;;27.23;;
1358;SDS011;673;48.098;14.422;2023-02-15T01:06:13;176.68;;;35.42;;
1358;SDS011;673;48.098;14.422;2023-02-15T01:08:42;88.65;;;27.50;;
1358;SDS011;673;48.098;14.422;2023-02-15T01:11:10;116.05;;;30.10;;
1358;SDS011;673;48.098;14.422;2023-02-15T01:13:39;81.55;;;22.40;;
1358;SDS011;673;48.098;14.422;2023-02-15T01:16:08;141.88;;;29.23;;
1358;SDS011;673;48.098;14.422;2023-02-15T01:18:35;156.00;;;35.55;;
1358;SDS011;673;48.098;14.422;2023-02-15T01:21:08;124.80;;;26.80;;
1358;SDS011;673;48.098;14.422;2023-02-15T01:23:36;88.90;;;26.27;;
1358;SDS011;673;48.098;14.422;2023-02-15T01:26:03;72.05;;;24.20;;
1358;SDS011;673;48.098;14.422;2023-02-15T01:28:30;31.20;;;17.37;;
1358;SDS011;673;48.098;14.422;2023-02-15T01:30:57;97.13;;;22.42;;
1358;SDS011;673;48.098;14.422;2023-02-15T01:33:26;55.17;;;20.10;;
1358;SDS011;673;48.098;14.422;2023-02-15T01:35:55;78.63;;;24.40;;
1358;SDS011;673;48.098;14.422;2023-02-15T01:38:23;81.63;;;21.20;;
1358;SDS011;673;48.098;14.422;2023-02-15T01:40:50;71.30;;;19.20;;
1358;SDS011;673;48.098;14.422;2023-02-15T01:43:18;117.50;;;25.70;;
1358;SDS011;673;48.098;14.422;2023-02-15T01:45:45;119.63;;;27.13;;
1358;SDS011;673;48.098;14.422;2023-02-15T01:48:17;57.27;;;21.53;;
1358;SDS011;673;48.098;14.422;2023-02-15T01:50:49;39.47;;;16.80;;
1358;SDS011;673;48.098;14.422;2023-02-15T01:53:20;52.57;;;18.60;;
1358;SDS011;673;48.098;14.422;2023-02-15T01:55:52;109.67;;;28.80;;
1358;SDS011;673;48.098;14.422;2023-02-15T01:58:23;123.30;;;30.77;;
1358;SDS011;673;48.098;14.422;2023-02-15T02:00:54;63.33;;;21.17;;
1358;SDS011;673;48.098;14.422;2023-02-15T02:03:27;73.40;;;22.73;;
1358;SDS011;673;48.098;14.422;2023-02-15T02:06:12;108.00;;;28.50;;
1358;SDS011;673;48.098;14.422;2023-02-15T02:08:40;76.07;;;23.17;;
1358;SDS011;673;48.098;14.422;2023-02-15T02:11:09;65.35;;;21.05;;
1358;SDS011;673;48.098;14.422;2023-02-15T02:13:37;85.13;;;24.50;;
1358;SDS011;673;48.098;14.422;2023-02-15T02:16:07;84.40;;;21.65;;
1358;SDS011;673;48.098;14.422;2023-02-15T02:18:41;125.43;;;32.25;;
1358;SDS011;673;48.098;14.422;2023-02-15T02:21:32;157.98;;;37.65;;
1358;SDS011;673;48.098;14.422;2023-02-15T02:24:34;111.87;;;29.77;;
1358;SDS011;673;48.098;14.422;2023-02-15T02:27:18;68.03;;;21.93;;
1358;SDS011;673;48.098;14.422;2023-02-15T02:30:06;65.38;;;21.33;;
1358;SDS011;673;48.098;14.422;2023-02-15T02:33:01;64.93;;;19.45;;
1358;SDS011;673;48.098;14.422;2023-02-15T02:35:56;60.28;;;22.20;;
1358;SDS011;673;48.098;14.422;2023-02-15T02:38:36;68.47;;;21.67;;
1358;SDS011;673;48.098;14.422;2023-02-15T02:41:16;56.35;;;20.67;;
1358;SDS011;673;48.098;14.422;2023-02-15T02:43:50;126.23;;;32.27;;
1358;SDS011;673;48.098;14.422;2023-02-15T02:46:21;75.18;;;22.00;;
1358;SDS011;673;48.098;14.422;2023-02-15T02:48:55;74.70;;;24.83;;
1358;SDS011;673;48.098;14.422;2023-02-15T02:51:23;95.43;;;25.30;;
1358;SDS011;673;48.098;14.422;2023-02-15T02:53:51;154.57;;;35.85;;
1358;SDS011;673;48.098;14.422;2023-02-15T02:56:23;72.70;;;21.20;;
1358;SDS011;673;48.098;14.422;2023-02-15T02:58:54;45.70;;;18.70;;
1358;SDS011;673;48.098;14.422;2023-02-15T03:01:26;61.35;;;20.88;;
1358;SDS011;673;48.098;14.422;2023-02-15T03:03:57;70.45;;;22.75;;
1358;SDS011;673;48.098;14.422;2023-02-15T03:06:30;46.55;;;20.42;;
1358;SDS011;673;48.098;14.422;2023-02-15T03:09:04;46.58;;;20.45;;
1358;SDS011;673;48.098;14.422;2023-02-15T03:11:39;53.13;;;18.40;;
1358;SDS011;673;48.098;14.422;2023-02-15T03:14:07;93.18;;;23.98;;
1358;SDS011;673;48.098;14.422;2023-02-15T03:16:34;65.80;;;21.48;;
1358;SDS011;673;48.098;14.422;2023-02-15T03:19:05;39.17;;;17.77;;
1358;SDS011;673;48.098;14.422;2023-02-15T03:21:36;61.80;;;22.02;;
1358;SDS011;673;48.098;14.422;2023-02-15T03:24:09;50.80;;;21.80;;
1358;SDS011;673;48.098;14.422;2023-02-15T03:26:40;54.83;;;19.97;;
1358;SDS011;673;48.098;14.422;2023-02-15T03:29:11;91.53;;;26.80;;
1358;SDS011;673;48.098;14.422;2023-02-15T03:31:41;67.90;;;21.88;;
1358;SDS011;673;48.098;14.422;2023-02-15T03:34:12;86.47;;;25.38;;
1358;SDS011;673;48.098;14.422;2023-02-15T03:36:43;63.00;;;21.42;;
1358;SDS011;673;48.098;14.422;2023-02-15T03:39:15;67.43;;;22.40;;
1358;SDS011;673;48.098;14.422;2023-02-15T03:41:47;115.35;;;26.45;;
1358;SDS011;673;48.098;14.422;2023-02-15T03:44:23;111.87;;;25.83;;
1358;SDS011;673;48.098;14.422;2023-02-15T03:46:55;176.03;;;34.27;;
1358;SDS011;673;48.098;14.422;2023-02-15T03:49:29;83.00;;;26.73;;
1358;SDS011;673;48.098;14.422;2023-02-15T03:52:02;69.67;;;23.97;;
1358;SDS011;673;48.098;14.422;2023-02-15T03:54:31;49.57;;;19.93;;
1358;SDS011;673;48.098;14.422;2023-02-15T03:57:12;69.30;;;23.30;;
1358;SDS011;673;48.098;14.422;2023-02-15T03:59:58;67.50;;;22.60;;
1358;SDS011;673;48.098;14.422;2023-02-15T04:02:46;81.53;;;25.75;;
1358;SDS011;673;48.098;14.422;2023-02-15T04:05:37;76.03;;;23.35;;
1358;SDS011;673;48.098;14.422;2023-02-15T04:08:04;71.40;;;22.83;;
1358;SDS011;673;48.098;14.422;2023-02-15T04:10:31;67.93;;;22.77;;
1358;SDS011;673;48.098;14.422;2023-02-15T04:13:16;45.27;;;18.07;;
1358;SDS011;673;48.098;14.422;2023-02-15T04:15:43;57.65;;;20.27;;
1358;SDS011;673;48.098;14.422;2023-02-15T04:18:27;58.63;;;23.33;;
1358;SDS011;673;48.098;14.422;2023-02-15T04:21:13;75.70;;;21.70;;
1358;SDS011;673;48.098;14.422;2023-02-15T04:23:57;70.57;;;22.73;;
1358;SDS011;673;48.098;14.422;2023-02-15T04:26:41;89.50;;;27.20;;
1358;SDS011;673;48.098;14.422;2023-02-15T04:29:08;40.33;;;17.40;;
1358;SDS011;673;48.098;14.422;2023-02-15T04:31:35;54.33;;;19.50;;
1358;SDS011;673;48.098;14.422;2023-02-15T04:34:02;50.90;;;21.10;;
1358;SDS011;673;48.098;14.422;2023-02-15T04:36:30;54.13;;;21.23;;
1358;SDS011;673;48.098;14.422;2023-02-15T04:38:57;46.33;;;19.30;;
1358;SDS011;673;48.098;14.422;2023-02-15T04:41:24;66.18;;;22.58;;
1358;SDS011;673;48.098;14.422;2023-02-15T04:43:51;59.75;;;21.35;;
1358;SDS011;673;48.098;14.422;2023-02-15T04:46:18;50.53;;;19.70;;
1358;SDS011;673;48.098;14.422;2023-02-15T04:48:45;61.30;;;20.20;;
1358;SDS011;673;48.098;14.422;2023-02-15T04:51:12;62.23;;;19.80;;
1358;SDS011;673;48.098;14.422;2023-02-15T04:53:41;49.70;;;18.80;;
1358;SDS011;673;48.098;14.422;2023-02-15T04:56:08;47.20;;;21.47;;
1358;SDS011;673;48.098;14.422;2023-02-15T04:58:34;50.57;;;20.83;;
1358;SDS011;673;48.098;14.422;2023-02-15T05:01:02;49.07;;;20.43;;
1358;SDS011;673;48.098;14.422;2023-02-15T05:03:29;35.10;;;18.17;;
1358;SDS011;673;48.098;14.422;2023-02-15T05:05:56;51.63;;;18.83;;
1358;SDS011;673;48.098;14.422;2023-02-15T05:08:23;73.72;;;24.88;;
1358;SDS011;673;48.098;14.422;2023-02-15T05:10:51;87.83;;;25.03;;
1358;SDS011;673;48.098;14.422;2023-02-15T05:13:18;45.73;;;20.20;;
1358;SDS011;673;48.098;14.422;2023-02-15T05:15:48;48.60;;;20.08;;
1358;SDS011;673;48.098;14.422;2023-02-15T05:18:16;55.90;;;20.98;;
1358;SDS011;673;48.098;14.422;2023-02-15T05:20:45;55.70;;;20.73;;
1358;SDS011;673;48.098;14.422;2023-02-15T05:23:12;49.83;;;20.88;;
1358;SDS011;673;48.098;14.422;2023-02-15T05:25:39;46.78;;;19.35;;
1358;SDS011;673;48.098;14.422;2023-02-15T05:28:26;54.37;;;21.77;;
1358;SDS011;673;48.098;14.422;2023-02-15T05:30:59;41.07;;;17.73;;
1358;SDS011;673;48.098;14.422;2023-02-15T05:33:29;41.90;;;18.00;;
1358;SDS011;673;48.098;14.422;2023-02-15T05:35:56;48.20;;;20.97;;
1358;SDS011;673;48.098;14.422;2023-02-15T05:38:23;56.83;;;22.23;;
1358;SDS011;673;48.098;14.422;2023-02-15T05:40:50;43.42;;;22.13;;
1358;SDS011;673;48.098;14.422;2023-02-15T05:43:18;60.20;;;20.13;;
1358;SDS011;673;48.098;14.422;2023-02-15T05:45:47;46.57;;;19.90;;
1358;SDS011;673;48.098;14.422;2023-02-15T05:48:14;41.67;;;21.47;;
1358;SDS011;673;48.098;14.422;2023-02-15T05:50:42;46.87;;;19.13;;
1358;SDS011;673;48.098;14.422;2023-02-15T05:53:09;57.07;;;25.40;;
1358;SDS011;673;48.098;14.422;2023-02-15T05:55:37;99.23;;;25.23;;
1358;SDS011;673;48.098;14.422;2023-02-15T05:58:04;74.73;;;23.33;;
1358;SDS011;673;48.098;14.422;2023-02-15T06:00:31;78.70;;;25.23;;
1358;SDS011;673;48.098;14.422;2023-02-15T06:02:59;40.43;;;19.30;;
1358;SDS011;673;48.098;14.422;2023-02-15T06:05:26;49.00;;;19.87;;
1358;SDS011;673;48.098;14.422;2023-02-15T06:07:53;55.57;;;20.33;;
1358;SDS011;673;48.098;14.422;2023-02-15T06:10:20;53.00;;;21.57;;
1358;SDS011;673;48.098;14.422;2023-02-15T06:12:47;47.33;;;20.53;;
1358;SDS011;673;48.098;14.422;2023-02-15T06:15:14;51.17;;;22.00;;
1358;SDS011;673;48.098;14.422;2023-02-15T06:17:41;42.22;;;20.77;;
1358;SDS011;673;48.098;14.422;2023-02-15T06:20:10;50.83;;;19.80;;
1358;SDS011;673;48.098;14.422;2023-02-15T06:22:38;59.40;;;24.13;;
1358;SDS011;673;48.098;14.422;2023-02-15T06:25:05;124.97;;;74.80;;
1358;SDS011;673;48.098;14.422;2023-02-15T06:27:34;79.80;;;39.53;;
1358;SDS011;673;48.098;14.422;2023-02-15T06:30:02;131.23;;;75.33;;
1358;SDS011;673;48.098;14.422;2023-02-15T06:32:30;42.87;;;23.83;;
1358;SDS011;673;48.098;14.422;2023-02-15T06:34:57;64.18;;;34.40;;
1358;SDS011;673;48.098;14.422;2023-02-15T06:37:26;83.32;;;36.92;;
1358;SDS011;673;48.098;14.422;2023-02-15T06:39:53;57.00;;;28.42;;
1358;SDS011;673;48.098;14.422;2023-02-15T06:42:20;58.37;;;31.10;;
1358;SDS011;673;48.098;14.422;2023-02-15T06:44:47;53.03;;;28.20;;
1358;SDS011;673;48.098;14.422;2023-02-15T06:47:14;50.80;;;28.87;;
1358;SDS011;673;48.098;14.422;2023-02-15T06:49:41;49.00;;;27.03;;
1358;SDS011;673;48.098;14.422;2023-02-15T06:52:08;45.43;;;23.13;;
1358;SDS011;673;48.098;14.422;2023-02-15T06:54:37;41.80;;;19.50;;
1358;SDS011;673;48.098;14.422;2023-02-15T06:57:03;53.80;;;21.67;;
1358;SDS011;673;48.098;14.422;2023-02-15T06:59:30;52.53;;;22.60;;
1358;SDS011;673;48.098;14.422;2023-02-15T07:01:57;38.50;;;19.83;;
1358;SDS011;673;48.098;14.422;2023-02-15T07:04:24;62.33;;;27.37;;
1358;SDS011;673;48.098;14.422;2023-02-15T07:06:53;52.67;;;26.97;;
1358;SDS011;673;48.098;14.422;2023-02-15T07:09:20;40.03;;;23.15;;
1358;SDS011;673;48.098;14.422;2023-02-15T07:11:49;47.58;;;26.23;;
1358;SDS011;673;48.098;14.422;2023-02-15T07:14:33;46.60;;;26.13;;
1358;SDS011;673;48.098;14.422;2023-02-15T07:17:00;43.63;;;20.93;;
1358;SDS011;673;48.098;14.422;2023-02-15T07:19:27;45.60;;;19.90;;
1358;SDS011;673;48.098;14.422;2023-02-15T07:21:54;41.30;;;21.40;;
1358;SDS011;673;48.098;14.422;2023-02-15T07:24:21;38.13;;;17.17;;
1358;SDS011;673;48.098;14.422;2023-02-15T07:26:49;40.83;;;21.53;;
1358;SDS011;673;48.098;14.422;2023-02-15T07:29:16;42.43;;;18.33;;
1358;SDS011;673;48.098;14.422;2023-02-15T07:31:44;33.67;;;16.40;;
1358;SDS011;673;48.098;14.422;2023-02-15T07:34:11;33.83;;;16.57;;
1358;SDS011;673;48.098;14.422;2023-02-15T07:36:38;54.43;;;19.37;;
1358;SDS011;673;48.098;14.422;2023-02-15T07:39:05;38.40;;;16.17;;
1358;SDS011;673;48.098;14.422;2023-02-15T07:41:32;39.93;;;18.80;;
1358;SDS011;673;48.098;14.422;2023-02-15T07:44:00;51.10;;;22.30;;
1358;SDS011;673;48.098;14.422;2023-02-15T07:46:27;51.60;;;19.43;;
1358;SDS011;673;48.098;14.422;2023-02-15T07:48:55;38.40;;;16.43;;
1358;SDS011;673;48.098;14.422;2023-02-15T07:51:22;38.77;;;20.90;;
1358;SDS011;673;48.098;14.422;2023-02-15T07:53:49;34.43;;;17.57;;
1358;SDS011;673;48.098;14.422;2023-02-15T07:56:16;31.90;;;15.40;;
1358;SDS011;673;48.098;14.422;2023-02-15T07:58:43;26.07;;;15.90;;
1358;SDS011;673;48.098;14.422;2023-02-15T08:01:23;41.07;;;18.87;;
1358;SDS011;673;48.098;14.422;2023-02-15T08:03:51;36.60;;;17.17;;
1358;SDS011;673;48.098;14.422;2023-02-15T08:06:18;35.47;;;17.97;;
1358;SDS011;673;48.098;14.422;2023-02-15T08:08:46;37.50;;;16.47;;
1358;SDS011;673;48.098;14.422;2023-02-15T08:11:17;39.10;;;17.83;;
1358;SDS011;673;48.098;14.422;2023-02-15T08:13:52;42.53;;;22.90;;
1358;SDS011;673;48.098;14.422;2023-02-15T08:16:24;34.23;;;19.60;;
1358;SDS011;673;48.098;14.422;2023-02-15T08:18:53;35.10;;;15.87;;
1358;SDS011;673;48.098;14.422;2023-02-15T08:21:21;34.90;;;16.53;;
1358;SDS011;673;48.098;14.422;2023-02-15T08:23:48;38.70;;;17.03;;
1358;SDS011;673;48.098;14.422;2023-02-15T08:26:15;31.57;;;13.73;;
1358;SDS011;673;48.098;14.422;2023-02-15T08:28:43;43.07;;;18.80;;
1358;SDS011;673;48.098;14.422;2023-02-15T08:31:11;30.37;;;16.27;;
1358;SDS011;673;48.098;14.422;2023-02-15T08:33:41;37.37;;;15.80;;
1358;SDS011;673;48.098;14.422;2023-02-15T08:36:10;28.13;;;13.33;;
1358;SDS011;673;48.098;14.422;2023-02-15T08:38:38;35.47;;;15.53;;
1358;SDS011;673;48.098;14.422;2023-02-15T08:41:13;28.60;;;14.00;;
1358;SDS011;673;48.098;14.422;2023-02-15T08:43:41;31.27;;;15.07;;
1358;SDS011;673;48.098;14.422;2023-02-15T08:46:09;32.30;;;14.90;;
1358;SDS011;673;48.098;14.422;2023-02-15T08:48:37;33.87;;;16.60;;
1358;SDS011;673;48.098;14.422;2023-02-15T08:51:07;31.07;;;15.13;;
1358;SDS011;673;48.098;14.422;2023-02-15T08:53:37;33.43;;;14.63;;
1358;SDS011;673;48.098;14.422;2023-02-15T08:56:05;29.03;;;14.07;;
1358;SDS011;673;48.098;14.422;2023-02-15T08:58:32;26.50;;;14.37;;
1358;SDS011;673;48.098;14.422;2023-02-15T09:01:00;31.80;;;17.00;;
1358;SDS011;673;48.098;14.422;2023-02-15T09:03:28;30.88;;;15.48;;
1358;SDS011;673;48.098;14.422;2023-02-15T09:06:01;28.87;;;13.20;;
1358;SDS011;673;48.098;14.422;2023-02-15T09:08:30;32.78;;;15.93;;
1358;SDS011;673;48.098;14.422;2023-02-15T09:11:07;30.73;;;14.20;;
1358;SDS011;673;48.098;14.422;2023-02-15T09:13:36;31.73;;;13.30;;
1358;SDS011;673;48.098;14.422;2023-02-15T09:16:04;31.77;;;15.60;;
1358;SDS011;673;48.098;14.422;2023-02-15T09:18:33;29.33;;;14.80;;
1358;SDS011;673;48.098;14.422;2023-02-15T09:21:06;31.40;;;15.83;;
1358;SDS011;673;48.098;14.422;2023-02-15T09:23:36;20.80;;;10.37;;
1358;SDS011;673;48.098;14.422;2023-02-15T09:26:04;34.23;;;14.37;;
1358;SDS011;673;48.098;14.422;2023-02-15T09:28:32;29.40;;;15.30;;
1358;SDS011;673;48.098;14.422;2023-02-15T09:31:06;32.10;;;16.80;;
1358;SDS011;673;48.098;14.422;2023-02-15T09:33:35;30.70;;;14.40;;
1358;SDS011;673;48.098;14.422;2023-02-15T09:36:03;35.83;;;15.00;;
1358;SDS011;673;48.098;14.422;2023-02-15T09:38:30;23.83;;;12.30;;
1358;SDS011;673;48.098;14.422;2023-02-15T09:41:03;33.90;;;18.33;;
1358;SDS011;673;48.098;14.422;2023-02-15T09:43:39;27.58;;;13.10;;
1358;SDS011;673;48.098;14.422;2023-02-15T09:46:23;32.63;;;14.80;;
1358;SDS011;673;48.098;14.422;2023-02-15T09:49:06;31.80;;;15.43;;
1358;SDS011;673;48.098;14.422;2023-02-15T09:51:45;29.70;;;13.73;;
1358;SDS011;673;48.098;14.422;2023-02-15T09:54:32;26.47;;;13.47;;
1358;SDS011;673;48.098;14.422;2023-02-15T09:57:10;26.03;;;12.27;;
1358;SDS011;673;48.098;14.422;2023-02-15T09:59:48;26.73;;;13.00;;
1358;SDS011;673;48.098;14.422;2023-02-15T10:02:27;18.97;;;11.60;;
1358;SDS011;673;48.098;14.422;2023-02-15T10:05:08;21.40;;;10.80;;
1358;SDS011;673;48.098;14.422;2023-02-15T10:07:46;27.67;;;13.60;;
1358;SDS011;673;48.098;14.422;2023-02-15T10:10:30;26.37;;;12.13;;
1358;SDS011;673;48.098;14.422;2023-02-15T10:13:12;26.37;;;12.63;;
1358;SDS011;673;48.098;14.422;2023-02-15T10:15:57;29.57;;;13.00;;
1358;SDS011;673;48.098;14.422;2023-02-15T10:18:38;31.93;;;15.20;;
1358;SDS011;673;48.098;14.422;2023-02-15T10:21:20;22.67;;;14.00;;
1358;SDS011;673;48.098;14.422;2023-02-15T10:27:04;26.87;;;12.60;;
1358;SDS011;673;48.098;14.422;2023-02-15T10:29:39;27.80;;;14.27;;
1358;SDS011;673;48.098;14.422;2023-02-15T10:32:17;24.57;;;13.00;;
1358;SDS011;673;48.098;14.422;2023-02-15T10:34:50;32.43;;;13.27;;
1358;SDS011;673;48.098;14.422;2023-02-15T10:37:25;29.70;;;17.27;;
1358;SDS011;673;48.098;14.422;2023-02-15T10:40:08;22.60;;;11.37;;
1358;SDS011;673;48.098;14.422;2023-02-15T10:42:46;26.27;;;12.60;;
1358;SDS011;673;48.098;14.422;2023-02-15T10:45:43;29.63;;;16.47;;
1358;SDS011;673;48.098;14.422;2023-02-15T10:48:26;54.27;;;28.40;;
1358;SDS011;673;48.098;14.422;2023-02-15T10:51:10;33.43;;;14.73;;
1358;SDS011;673;48.098;14.422;2023-02-15T10:56:41;19.73;;;10.80;;
1358;SDS011;673;48.098;14.422;2023-02-15T10:59:27;26.53;;;13.13;;
1358;SDS011;673;48.098;14.422;2023-02-15T11:02:20;27.63;;;11.73;;
1358;SDS011;673;48.098;14.422;2023-02-15T11:05:00;24.60;;;12.43;;
1358;SDS011;673;48.098;14.422;2023-02-15T11:07:43;19.53;;;12.13;;
1358;SDS011;673;48.098;14.422;2023-02-15T11:10:17;23.63;;;12.23;;
1358;SDS011;673;48.098;14.422;2023-02-15T11:12:52;26.77;;;12.70;;
1358;SDS011;673;48.098;14.422;2023-02-15T11:15:30;19.90;;;10.87;;
1358;SDS011;673;48.098;14.422;2023-02-15T11:18:11;27.30;;;11.57;;
1358;SDS011;673;48.098;14.422;2023-02-15T11:20:49;23.43;;;12.00;;
1358;SDS011;673;48.098;14.422;2023-02-15T11:23:23;19.37;;;11.23;;
1358;SDS011;673;48.098;14.422;2023-02-15T11:25:53;21.23;;;10.77;;
1358;SDS011;673;48.098;14.422;2023-02-15T11:28:28;27.00;;;12.77;;
1358;SDS011;673;48.098;14.422;2023-02-15T11:31:00;17.20;;;10.13;;
1358;SDS011;673;48.098;14.422;2023-02-15T11:33:39;25.43;;;11.77;;
1358;SDS011;673;48.098;14.422;2023-02-15T11:36:12;25.20;;;12.00;;
1358;SDS011;673;48.098;14.422;2023-02-15T11:38:42;25.60;;;11.83;;
1358;SDS011;673;48.098;14.422;2023-02-15T11:41:13;27.37;;;12.23;;
1358;SDS011;673;48.098;14.422;2023-02-15T11:43:46;18.57;;;10.07;;
1358;SDS011;673;48.098;14.422;2023-02-15T11:46:17;21.70;;;11.43;;
1358;SDS011;673;48.098;14.422;2023-02-15T11:48:47;25.60;;;12.63;;
1358;SDS011;673;48.098;14.422;2023-02-15T11:51:15;23.43;;;12.43;;
1358;SDS011;673;48.098;14.422;2023-02-15T11:53:44;25.73;;;11.80;;
1358;SDS011;673;48.098;14.422;2023-02-15T11:56:13;20.37;;;12.27;;
1358;SDS011;673;48.098;14.422;2023-02-15T11:58:42;23.77;;;13.23;;
1358;SDS011;673;48.098;14.422;2023-02-15T12:01:14;22.97;;;11.73;;
1358;SDS011;673;48.098;14.422;2023-02-15T12:03:45;21.23;;;10.80;;
1358;SDS011;673;48.098;14.422;2023-02-15T12:06:20;15.97;;;10.47;;
1358;SDS011;673;48.098;14.422;2023-02-15T12:08:59;24.40;;;12.60;;
1358;SDS011;673;48.098;14.422;2023-02-15T12:11:33;22.87;;;11.77;;
1358;SDS011;673;48.098;14.422;2023-02-15T12:14:03;21.37;;;10.97;;
1358;SDS011;673;48.098;14.422;2023-02-15T12:16:41;23.50;;;12.67;;
1358;SDS011;673;48.098;14.422;2023-02-15T12:19:29;22.50;;;11.80;;
1358;SDS011;673;48.098;14.422;2023-02-15T12:22:01;20.87;;;10.23;;
1358;SDS011;673;48.098;14.422;2023-02-15T12:24:30;23.10;;;12.53;;
1358;SDS011;673;48.098;14.422;2023-02-15T12:27:02;22.30;;;10.60;;
1358;SDS011;673;48.098;14.422;2023-02-15T12:29:34;24.10;;;12.70;;
1358;SDS011;673;48.098;14.422;2023-02-15T12:32:09;21.00;;;10.70;;
1358;SDS011;673;48.098;14.422;2023-02-15T12:34:39;19.03;;;10.73;;
1358;SDS011;673;48.098;14.422;2023-02-15T12:37:09;21.43;;;11.17;;
1358;SDS011;673;48.098;14.422;2023-02-15T12:39:44;23.70;;;11.10;;
1358;SDS011;673;48.098;14.422;2023-02-15T12:42:18;20.97;;;10.73;;
1358;SDS011;673;48.098;14.422;2023-02-15T12:47:46;25.23;;;12.70;;
1358;SDS011;673;48.098;14.422;2023-02-15T12:50:21;21.53;;;11.90;;
1358;SDS011;673;48.098;14.422;2023-02-15T12:53:02;19.87;;;10.90;;
1358;SDS011;673;48.098;14.422;2023-02-15T12:55:33;25.27;;;12.93;;
1358;SDS011;673;48.098;14.422;2023-02-15T12:58:06;22.93;;;13.67;;
1358;SDS011;673;48.098;14.422;2023-02-15T13:00:34;25.73;;;13.60;;
1358;SDS011;673;48.098;14.422;2023-02-15T13:03:02;22.33;;;11.40;;
1358;SDS011;673;48.098;14.422;2023-02-15T13:05:35;20.43;;;10.60;;
1358;SDS011;673;48.098;14.422;2023-02-15T13:08:08;27.27;;;13.43;;
1358;SDS011;673;48.098;14.422;2023-02-15T13:10:39;27.13;;;12.97;;
1358;SDS011;673;48.098;14.422;2023-02-15T13:13:09;23.13;;;12.03;;
1358;SDS011;673;48.098;14.422;2023-02-15T13:15:37;19.10;;;11.47;;
1358;SDS011;673;48.098;14.422;2023-02-15T13:18:10;18.20;;;11.27;;
1358;SDS011;673;48.098;14.422;2023-02-15T13:20:43;20.33;;;10.60;;
1358;SDS011;673;48.098;14.422;2023-02-15T13:23:15;25.73;;;14.67;;
1358;SDS011;673;48.098;14.422;2023-02-15T13:25:52;26.80;;;11.53;;
1358;SDS011;673;48.098;14.422;2023-02-15T13:28:22;22.63;;;13.73;;
1358;SDS011;673;48.098;14.422;2023-02-15T13:30:53;26.40;;;13.30;;
1358;SDS011;673;48.098;14.422;2023-02-15T13:33:23;19.53;;;11.50;;
1358;SDS011;673;48.098;14.422;2023-02-15T13:35:57;28.60;;;13.40;;
1358;SDS011;673;48.098;14.422;2023-02-15T13:38:44;22.10;;;11.93;;
1358;SDS011;673;48.098;14.422;2023-02-15T13:41:16;21.90;;;11.70;;
1358;SDS011;673;48.098;14.422;2023-02-15T13:43:50;25.77;;;13.10;;
1358;SDS011;673;48.098;14.422;2023-02-15T13:46:31;19.73;;;10.97;;
1358;SDS011;673;48.098;14.422;2023-02-15T13:49:17;24.07;;;12.73;;
1358;SDS011;673;48.098;14.422;2023-02-15T13:52:01;23.50;;;11.90;;
1358;SDS011;673;48.098;14.422;2023-02-15T13:54:44;24.20;;;11.10;;
1358;SDS011;673;48.098;14.422;2023-02-15T13:57:40;16.30;;;9.70;;
1358;SDS011;673;48.098;14.422;2023-02-15T14:00:21;18.20;;;10.57;;
1358;SDS011;673;48.098;14.422;2023-02-15T14:02:59;19.67;;;11.23;;
1358;SDS011;673;48.098;14.422;2023-02-15T14:05:44;22.13;;;11.73;;
1358;SDS011;673;48.098;14.422;2023-02-15T14:08:21;25.73;;;12.03;;
1358;SDS011;673;48.098;14.422;2023-02-15T14:10:59;20.60;;;12.23;;
1358;SDS011;673;48.098;14.422;2023-02-15T14:16:34;25.40;;;10.40;;
1358;SDS011;673;48.098;14.422;2023-02-15T14:19:13;20.73;;;11.40;;
1358;SDS011;673;48.098;14.422;2023-02-15T14:21:48;19.73;;;11.43;;
1358;SDS011;673;48.098;14.422;2023-02-15T14:24:32;17.53;;;9.97;;
1358;SDS011;673;48.098;14.422;2023-02-15T14:27:06;23.83;;;12.53;;
1358;SDS011;673;48.098;14.422;2023-02-15T14:29:45;20.47;;;10.73;;
1358;SDS011;673;48.098;14.422;2023-02-15T14:32:16;24.60;;;14.07;;
1358;SDS011;673;48.098;14.422;2023-02-15T14:34:48;20.70;;;12.30;;
1358;SDS011;673;48.098;14.422;2023-02-15T14:37:19;26.47;;;11.50;;
1358;SDS011;673;48.098;14.422;2023-02-15T14:39:55;18.67;;;10.13;;
1358;SDS011;673;48.098;14.422;2023-02-15T14:42:47;19.43;;;11.30;;
1358;SDS011;673;48.098;14.422;2023-02-15T14:45:21;22.73;;;11.03;;
1358;SDS011;673;48.098;14.422;2023-02-15T14:47:57;20.03;;;13.10;;
1358;SDS011;673;48.098;14.422;2023-02-15T14:50:38;21.63;;;10.90;;
1358;SDS011;673;48.098;14.422;2023-02-15T14:53:23;17.33;;;10.40;;
1358;SDS011;673;48.098;14.422;2023-02-15T14:58:54;20.40;;;10.50;;
1358;SDS011;673;48.098;14.422;2023-02-15T15:01:24;23.03;;;11.87;;
1358;SDS011;673;48.098;14.422;2023-02-15T15:03:54;18.50;;;11.60;;
1358;SDS011;673;48.098;14.422;2023-02-15T15:06:25;19.77;;;12.27;;
1358;SDS011;673;48.098;14.422;2023-02-15T15:08:54;20.97;;;10.80;;
1358;SDS011;673;48.098;14.422;2023-02-15T15:17:06;23.20;;;12.90;;
1358;SDS011;673;48.098;14.422;2023-02-15T15:22:34;25.17;;;14.87;;
1358;SDS011;673;48.098;14.422;2023-02-15T15:25:02;29.17;;;12.33;;
1358;SDS011;673;48.098;14.422;2023-02-15T15:27:43;24.93;;;12.77;;
1358;SDS011;673;48.098;14.422;2023-02-15T15:33:46;26.00;;;13.97;;
1358;SDS011;673;48.098;14.422;2023-02-15T15:43:08;25.63;;;13.60;;
1358;SDS011;673;48.098;14.422;2023-02-15T15:46:03;27.47;;;15.63;;
1358;SDS011;673;48.098;14.422;2023-02-15T15:48:39;30.90;;;14.33;;
1358;SDS011;673;48.098;14.422;2023-02-15T15:51:10;26.03;;;13.17;;